sensor_id;sensor_type;location;lat;lon;timestamp;temperature;humidity
51855;DHT22;37895;53.240;6.572;2023-06-22T00:01:58;17.80;99.90
51855;DHT22;37895;53.240;6.572;2023-06-22T00:04:24;17.70;99.90
51855;DHT22;37895;53.240;6.572;2023-06-22T00:06:50;17.70;99.90
51855;DHT22;37895;53.240;6.572;2023-06-22T00:09:16;17.70;99.90
51855;DHT22;37895;53.240;6.572;2023-06-22T00:11:42;17.60;99.90
51855;DHT22;37895;53.240;6.572;2023-06-22T00:14:07;17.60;99.90
51855;DHT22;37895;53.240;6.572;2023-06-22T00:16:33;17.50;99.90
51855;DHT22;37895;53.240;6.572;2023-06-22T00:18:59;17.50;99.90
51855;DHT22;37895;53.240;6.572;2023-06-22T00:21:29;17.50;99.90
51855;DHT22;37895;53.240;6.572;2023-06-22T00:23:55;17.50;99.90
51855;DHT22;37895;53.240;6.572;2023-06-22T00:26:21;17.50;99.90
51855;DHT22;37895;53.240;6.572;2023-06-22T00:28:47;17.50;99.90
51855;DHT22;37895;53.240;6.572;2023-06-22T00:31:13;17.50;99.90
51855;DHT22;37895;53.240;6.572;2023-06-22T00:33:38;17.50;99.90
51855;DHT22;37895;53.240;6.572;2023-06-22T00:36:04;17.50;99.90
51855;DHT22;37895;53.240;6.572;2023-06-22T00:38:31;17.50;99.90
51855;DHT22;37895;53.240;6.572;2023-06-22T00:40:57;17.50;99.90
51855;DHT22;37895;53.240;6.572;2023-06-22T00:43:22;17.40;99.90
51855;DHT22;37895;53.240;6.572;2023-06-22T00:45:48;17.40;99.90
51855;DHT22;37895;53.240;6.572;2023-06-22T00:48:14;17.40;99.90
51855;DHT22;37895;53.240;6.572;2023-06-22T00:50:40;17.40;99.90
51855;DHT22;37895;53.240;6.572;2023-06-22T00:53:07;17.40;99.90
51855;DHT22;37895;53.240;6.572;2023-06-22T00:55:38;17.50;99.90
51855;DHT22;37895;53.240;6.572;2023-06-22T00:58:05;17.40;99.90
51855;DHT22;37895;53.240;6.572;2023-06-22T01:00:33;17.30;99.90
51855;DHT22;37895;53.240;6.572;2023-06-22T01:02:59;17.30;99.90
51855;DHT22;37895;53.240;6.572;2023-06-22T01:05:24;17.20;99.90
51855;DHT22;37895;53.240;6.572;2023-06-22T01:08:22;17.20;99.90
51855;DHT22;37895;53.240;6.572;2023-06-22T01:10:53;17.20;99.90
51855;DHT22;37895;53.240;6.572;2023-06-22T01:13:37;17.00;99.90
51855;DHT22;37895;53.240;6.572;2023-06-22T01:16:27;16.90;99.90
51855;DHT22;37895;53.240;6.572;2023-06-22T01:18:55;16.80;99.90
51855;DHT22;37895;53.240;6.572;2023-06-22T01:21:24;16.60;99.90
51855;DHT22;37895;53.240;6.572;2023-06-22T01:29:39;16.50;99.90
51855;DHT22;37895;53.240;6.572;2023-06-22T01:32:06;16.40;99.90
51855;DHT22;37895;53.240;6.572;2023-06-22T01:34:33;16.40;99.90
51855;DHT22;37895;53.240;6.572;2023-06-22T01:37:01;16.30;99.90
51855;DHT22;37895;53.240;6.572;2023-06-22T01:39:27;16.30;99.90
51855;DHT22;37895;53.240;6.572;2023-06-22T01:41:54;16.30;99.90
51855;DHT22;37895;53.240;6.572;2023-06-22T01:44:20;16.20;99.90
51855;DHT22;37895;53.240;6.572;2023-06-22T01:46:49;16.20;99.90
51855;DHT22;37895;53.240;6.572;2023-06-22T01:49:15;16.10;99.90
51855;DHT22;37895;53.240;6.572;2023-06-22T01:51:41;16.10;99.90
51855;DHT22;37895;53.240;6.572;2023-06-22T01:54:07;16.00;99.90
51855;DHT22;37895;53.240;6.572;2023-06-22T01:56:33;16.00;99.90
51855;DHT22;37895;53.240;6.572;2023-06-22T01:59:29;16.00;99.90
51855;DHT22;37895;53.240;6.572;2023-06-22T02:02:07;16.10;99.90
51855;DHT22;37895;53.240;6.572;2023-06-22T02:04:59;16.00;99.90
51855;DHT22;37895;53.240;6.572;2023-06-22T02:07:33;16.00;99.90
51855;DHT22;37895;53.240;6.572;2023-06-22T02:10:00;16.00;99.90
51855;DHT22;37895;53.240;6.572;2023-06-22T02:12:28;16.00;99.90
51855;DHT22;37895;53.240;6.572;2023-06-22T02:14:55;16.00;99.90
51855;DHT22;37895;53.240;6.572;2023-06-22T02:17:20;16.00;99.90
51855;DHT22;37895;53.240;6.572;2023-06-22T02:19:46;16.00;99.90
51855;DHT22;37895;53.240;6.572;2023-06-22T02:22:12;15.90;99.90
51855;DHT22;37895;53.240;6.572;2023-06-22T02:24:40;15.90;99.90
51855;DHT22;37895;53.240;6.572;2023-06-22T02:27:06;15.90;99.90
51855;DHT22;37895;53.240;6.572;2023-06-22T02:29:32;15.90;99.90
51855;DHT22;37895;53.240;6.572;2023-06-22T02:31:58;15.90;99.90
51855;DHT22;37895;53.240;6.572;2023-06-22T02:34:24;15.90;99.90
51855;DHT22;37895;53.240;6.572;2023-06-22T02:36:50;15.90;99.90
51855;DHT22;37895;53.240;6.572;2023-06-22T02:39:23;15.80;99.90
51855;DHT22;37895;53.240;6.572;2023-06-22T02:41:50;15.80;99.90
51855;DHT22;37895;53.240;6.572;2023-06-22T02:44:17;15.80;99.90
51855;DHT22;37895;53.240;6.572;2023-06-22T02:46:43;15.80;99.90
51855;DHT22;37895;53.240;6.572;2023-06-22T02:49:09;15.80;99.90
51855;DHT22;37895;53.240;6.572;2023-06-22T02:51:35;15.80;99.90
51855;DHT22;37895;53.240;6.572;2023-06-22T02:54:01;15.70;99.90
51855;DHT22;37895;53.240;6.572;2023-06-22T02:56:28;15.80;99.90
51855;DHT22;37895;53.240;6.572;2023-06-22T02:58:56;15.80;99.90
51855;DHT22;37895;53.240;6.572;2023-06-22T03:01:26;15.70;99.90
51855;DHT22;37895;53.240;6.572;2023-06-22T03:04:01;15.60;99.90
51855;DHT22;37895;53.240;6.572;2023-06-22T03:06:27;15.60;99.90
51855;DHT22;37895;53.240;6.572;2023-06-22T03:09:00;15.50;99.90
51855;DHT22;37895;53.240;6.572;2023-06-22T03:11:26;15.40;99.90
51855;DHT22;37895;53.240;6.572;2023-06-22T03:13:52;15.30;99.90
51855;DHT22;37895;53.240;6.572;2023-06-22T03:16:18;15.30;99.90
51855;DHT22;37895;53.240;6.572;2023-06-22T03:18:45;15.20;99.90
51855;DHT22;37895;53.240;6.572;2023-06-22T03:21:10;15.20;99.90
51855;DHT22;37895;53.240;6.572;2023-06-22T03:23:36;15.20;99.90
51855;DHT22;37895;53.240;6.572;2023-06-22T03:26:02;15.20;99.90
51855;DHT22;37895;53.240;6.572;2023-06-22T03:28:27;15.20;99.90
51855;DHT22;37895;53.240;6.572;2023-06-22T03:30:53;15.20;99.90
51855;DHT22;37895;53.240;6.572;2023-06-22T03:33:19;15.20;99.90
51855;DHT22;37895;53.240;6.572;2023-06-22T03:35:45;15.20;99.90
51855;DHT22;37895;53.240;6.572;2023-06-22T03:38:10;15.20;99.90
51855;DHT22;37895;53.240;6.572;2023-06-22T03:40:36;15.20;99.90
51855;DHT22;37895;53.240;6.572;2023-06-22T03:43:01;15.30;99.90
51855;DHT22;37895;53.240;6.572;2023-06-22T03:45:27;15.20;99.90
51855;DHT22;37895;53.240;6.572;2023-06-22T03:47:53;15.20;99.90
51855;DHT22;37895;53.240;6.572;2023-06-22T03:50:18;15.20;99.90
51855;DHT22;37895;53.240;6.572;2023-06-22T03:52:46;15.20;99.90
51855;DHT22;37895;53.240;6.572;2023-06-22T03:55:11;15.30;99.90
51855;DHT22;37895;53.240;6.572;2023-06-22T03:57:37;15.20;99.90
51855;DHT22;37895;53.240;6.572;2023-06-22T04:00:03;15.30;99.90
51855;DHT22;37895;53.240;6.572;2023-06-22T04:02:33;15.20;99.90
51855;DHT22;37895;53.240;6.572;2023-06-22T04:04:58;15.20;99.90
51855;DHT22;37895;53.240;6.572;2023-06-22T04:07:24;15.30;99.90
51855;DHT22;37895;53.240;6.572;2023-06-22T04:09:50;15.30;99.90
51855;DHT22;37895;53.240;6.572;2023-06-22T04:12:15;15.30;99.90
51855;DHT22;37895;53.240;6.572;2023-06-22T04:14:41;15.40;99.90
51855;DHT22;37895;53.240;6.572;2023-06-22T04:17:07;15.40;99.90
51855;DHT22;37895;53.240;6.572;2023-06-22T04:19:32;15.50;99.90
51855;DHT22;37895;53.240;6.572;2023-06-22T04:21:58;15.50;99.90
51855;DHT22;37895;53.240;6.572;2023-06-22T04:24:24;15.60;99.90
51855;DHT22;37895;53.240;6.572;2023-06-22T04:26:49;15.60;99.90
51855;DHT22;37895;53.240;6.572;2023-06-22T04:29:20;15.70;99.90
51855;DHT22;37895;53.240;6.572;2023-06-22T04:31:46;15.80;99.90
51855;DHT22;37895;53.240;6.572;2023-06-22T04:34:17;15.90;99.90
51855;DHT22;37895;53.240;6.572;2023-06-22T04:36:42;15.90;99.90
51855;DHT22;37895;53.240;6.572;2023-06-22T04:39:10;15.90;99.90
51855;DHT22;37895;53.240;6.572;2023-06-22T04:41:37;16.00;99.90
51855;DHT22;37895;53.240;6.572;2023-06-22T04:44:10;16.10;99.90
51855;DHT22;37895;53.240;6.572;2023-06-22T04:46:37;16.20;99.90
51855;DHT22;37895;53.240;6.572;2023-06-22T04:49:07;16.30;99.90
51855;DHT22;37895;53.240;6.572;2023-06-22T04:51:39;16.30;99.90
51855;DHT22;37895;53.240;6.572;2023-06-22T04:54:05;16.30;99.90
51855;DHT22;37895;53.240;6.572;2023-06-22T04:56:32;16.40;99.90
51855;DHT22;37895;53.240;6.572;2023-06-22T04:58:57;16.50;99.90
51855;DHT22;37895;53.240;6.572;2023-06-22T05:01:24;16.60;99.90
51855;DHT22;37895;53.240;6.572;2023-06-22T05:03:50;16.60;99.90
51855;DHT22;37895;53.240;6.572;2023-06-22T05:06:16;16.70;99.90
51855;DHT22;37895;53.240;6.572;2023-06-22T05:08:43;16.80;99.90
51855;DHT22;37895;53.240;6.572;2023-06-22T05:11:09;16.80;99.90
51855;DHT22;37895;53.240;6.572;2023-06-22T05:13:34;16.90;99.90
51855;DHT22;37895;53.240;6.572;2023-06-22T05:16:00;17.00;99.90
51855;DHT22;37895;53.240;6.572;2023-06-22T05:18:29;17.00;99.90
51855;DHT22;37895;53.240;6.572;2023-06-22T05:20:55;17.10;99.90
51855;DHT22;37895;53.240;6.572;2023-06-22T05:23:21;17.20;99.90
51855;DHT22;37895;53.240;6.572;2023-06-22T05:25:46;17.20;99.90
51855;DHT22;37895;53.240;6.572;2023-06-22T05:28:12;17.30;99.90
51855;DHT22;37895;53.240;6.572;2023-06-22T05:30:38;17.30;99.90
51855;DHT22;37895;53.240;6.572;2023-06-22T05:33:04;17.40;99.90
51855;DHT22;37895;53.240;6.572;2023-06-22T05:35:29;17.40;99.90
51855;DHT22;37895;53.240;6.572;2023-06-22T05:37:55;17.50;99.90
51855;DHT22;37895;53.240;6.572;2023-06-22T05:40:21;17.60;99.90
51855;DHT22;37895;53.240;6.572;2023-06-22T05:42:47;17.60;99.90
51855;DHT22;37895;53.240;6.572;2023-06-22T05:45:12;17.70;99.90
51855;DHT22;37895;53.240;6.572;2023-06-22T05:47:38;17.80;99.90
51855;DHT22;37895;53.240;6.572;2023-06-22T05:50:05;17.80;99.90
51855;DHT22;37895;53.240;6.572;2023-06-22T05:52:34;17.90;99.90
51855;DHT22;37895;53.240;6.572;2023-06-22T05:55:01;18.00;99.90
51855;DHT22;37895;53.240;6.572;2023-06-22T05:57:27;18.10;99.90
51855;DHT22;37895;53.240;6.572;2023-06-22T05:59:53;18.20;99.90
51855;DHT22;37895;53.240;6.572;2023-06-22T06:02:19;18.30;99.90
51855;DHT22;37895;53.240;6.572;2023-06-22T06:04:45;18.30;99.90
51855;DHT22;37895;53.240;6.572;2023-06-22T06:07:10;18.30;99.90
51855;DHT22;37895;53.240;6.572;2023-06-22T06:09:36;18.40;99.90
51855;DHT22;37895;53.240;6.572;2023-06-22T06:12:02;18.50;99.90
51855;DHT22;37895;53.240;6.572;2023-06-22T06:14:28;18.50;99.90
51855;DHT22;37895;53.240;6.572;2023-06-22T06:16:54;18.50;99.90
51855;DHT22;37895;53.240;6.572;2023-06-22T06:19:19;18.50;99.90
51855;DHT22;37895;53.240;6.572;2023-06-22T06:21:45;18.60;99.90
51855;DHT22;37895;53.240;6.572;2023-06-22T06:24:11;18.70;99.90
51855;DHT22;37895;53.240;6.572;2023-06-22T06:26:37;18.80;99.90
51855;DHT22;37895;53.240;6.572;2023-06-22T06:29:03;18.90;99.90
51855;DHT22;37895;53.240;6.572;2023-06-22T06:31:28;19.00;99.90
51855;DHT22;37895;53.240;6.572;2023-06-22T06:33:54;19.10;99.90
51855;DHT22;37895;53.240;6.572;2023-06-22T06:36:20;19.20;99.90
51855;DHT22;37895;53.240;6.572;2023-06-22T06:38:46;19.20;99.90
51855;DHT22;37895;53.240;6.572;2023-06-22T06:41:15;19.30;99.90
51855;DHT22;37895;53.240;6.572;2023-06-22T06:43:41;19.40;99.90
51855;DHT22;37895;53.240;6.572;2023-06-22T06:46:10;19.50;99.90
51855;DHT22;37895;53.240;6.572;2023-06-22T06:48:35;19.60;99.90
51855;DHT22;37895;53.240;6.572;2023-06-22T06:51:01;19.70;99.90
51855;DHT22;37895;53.240;6.572;2023-06-22T06:53:27;19.80;99.90
51855;DHT22;37895;53.240;6.572;2023-06-22T06:55:54;19.90;99.90
51855;DHT22;37895;53.240;6.572;2023-06-22T06:58:19;19.90;99.90
51855;DHT22;37895;53.240;6.572;2023-06-22T07:00:45;19.90;99.90
51855;DHT22;37895;53.240;6.572;2023-06-22T07:03:11;20.00;99.90
51855;DHT22;37895;53.240;6.572;2023-06-22T07:05:37;20.00;99.90
51855;DHT22;37895;53.240;6.572;2023-06-22T07:08:02;20.10;99.90
51855;DHT22;37895;53.240;6.572;2023-06-22T07:10:29;20.20;99.90
51855;DHT22;37895;53.240;6.572;2023-06-22T07:12:54;20.30;99.90
51855;DHT22;37895;53.240;6.572;2023-06-22T07:15:20;20.40;99.90
51855;DHT22;37895;53.240;6.572;2023-06-22T07:17:46;20.40;99.90
51855;DHT22;37895;53.240;6.572;2023-06-22T07:20:11;20.50;99.90
51855;DHT22;37895;53.240;6.572;2023-06-22T07:22:42;20.50;99.90
51855;DHT22;37895;53.240;6.572;2023-06-22T07:25:08;20.60;99.90
51855;DHT22;37895;53.240;6.572;2023-06-22T07:27:39;20.70;99.90
51855;DHT22;37895;53.240;6.572;2023-06-22T07:30:09;20.70;99.90
51855;DHT22;37895;53.240;6.572;2023-06-22T07:32:35;20.80;99.90
51855;DHT22;37895;53.240;6.572;2023-06-22T07:35:01;20.80;99.90
51855;DHT22;37895;53.240;6.572;2023-06-22T07:37:28;20.80;99.90
51855;DHT22;37895;53.240;6.572;2023-06-22T07:39:57;20.80;99.90
51855;DHT22;37895;53.240;6.572;2023-06-22T07:42:27;20.90;99.90
51855;DHT22;37895;53.240;6.572;2023-06-22T07:44:54;21.00;99.90
51855;DHT22;37895;53.240;6.572;2023-06-22T07:47:20;20.90;99.90
51855;DHT22;37895;53.240;6.572;2023-06-22T07:49:46;20.90;99.90
51855;DHT22;37895;53.240;6.572;2023-06-22T07:52:12;21.00;99.90
51855;DHT22;37895;53.240;6.572;2023-06-22T07:54:38;21.00;99.90
51855;DHT22;37895;53.240;6.572;2023-06-22T07:57:04;21.00;99.90
51855;DHT22;37895;53.240;6.572;2023-06-22T07:59:30;21.10;99.90
51855;DHT22;37895;53.240;6.572;2023-06-22T08:01:55;21.20;99.90
51855;DHT22;37895;53.240;6.572;2023-06-22T08:04:21;21.10;99.90
51855;DHT22;37895;53.240;6.572;2023-06-22T08:06:46;21.20;99.90
51855;DHT22;37895;53.240;6.572;2023-06-22T08:09:12;21.20;99.90
51855;DHT22;37895;53.240;6.572;2023-06-22T08:11:38;21.30;99.90
51855;DHT22;37895;53.240;6.572;2023-06-22T08:14:03;21.40;99.90
51855;DHT22;37895;53.240;6.572;2023-06-22T08:16:29;21.50;99.90
51855;DHT22;37895;53.240;6.572;2023-06-22T08:18:55;21.60;99.90
51855;DHT22;37895;53.240;6.572;2023-06-22T08:21:20;21.70;99.90
51855;DHT22;37895;53.240;6.572;2023-06-22T08:23:46;21.70;99.90
51855;DHT22;37895;53.240;6.572;2023-06-22T08:26:11;21.80;99.90
51855;DHT22;37895;53.240;6.572;2023-06-22T08:28:37;21.80;99.90
51855;DHT22;37895;53.240;6.572;2023-06-22T08:31:03;21.80;99.90
51855;DHT22;37895;53.240;6.572;2023-06-22T08:33:29;21.90;99.90
51855;DHT22;37895;53.240;6.572;2023-06-22T08:35:56;21.90;99.90
51855;DHT22;37895;53.240;6.572;2023-06-22T08:38:22;21.90;99.90
51855;DHT22;37895;53.240;6.572;2023-06-22T08:40:47;22.00;99.90
51855;DHT22;37895;53.240;6.572;2023-06-22T08:43:14;22.00;99.90
51855;DHT22;37895;53.240;6.572;2023-06-22T08:45:39;22.10;99.90
51855;DHT22;37895;53.240;6.572;2023-06-22T08:48:05;22.20;99.90
51855;DHT22;37895;53.240;6.572;2023-06-22T08:50:30;22.30;99.90
51855;DHT22;37895;53.240;6.572;2023-06-22T08:52:56;22.30;99.90
51855;DHT22;37895;53.240;6.572;2023-06-22T08:55:21;22.30;99.90
51855;DHT22;37895;53.240;6.572;2023-06-22T08:57:47;22.50;99.90
51855;DHT22;37895;53.240;6.572;2023-06-22T09:00:13;22.50;99.90
51855;DHT22;37895;53.240;6.572;2023-06-22T09:02:43;22.50;99.90
51855;DHT22;37895;53.240;6.572;2023-06-22T09:05:09;22.60;99.90
51855;DHT22;37895;53.240;6.572;2023-06-22T09:07:35;22.60;99.90
51855;DHT22;37895;53.240;6.572;2023-06-22T09:10:00;22.60;99.90
51855;DHT22;37895;53.240;6.572;2023-06-22T09:12:26;22.70;99.90
51855;DHT22;37895;53.240;6.572;2023-06-22T09:14:53;22.70;99.90
51855;DHT22;37895;53.240;6.572;2023-06-22T09:17:19;22.80;99.90
51855;DHT22;37895;53.240;6.572;2023-06-22T09:19:44;22.80;99.90
51855;DHT22;37895;53.240;6.572;2023-06-22T09:22:10;22.90;99.90
51855;DHT22;37895;53.240;6.572;2023-06-22T09:24:35;22.90;99.90
51855;DHT22;37895;53.240;6.572;2023-06-22T09:27:01;23.00;99.70
51855;DHT22;37895;53.240;6.572;2023-06-22T09:29:27;23.00;99.90
51855;DHT22;37895;53.240;6.572;2023-06-22T09:31:52;23.00;99.30
51855;DHT22;37895;53.240;6.572;2023-06-22T09:34:19;23.10;99.90
51855;DHT22;37895;53.240;6.572;2023-06-22T09:36:46;23.20;99.90
51855;DHT22;37895;53.240;6.572;2023-06-22T09:39:11;23.30;99.90
51855;DHT22;37895;53.240;6.572;2023-06-22T09:41:37;23.40;99.90
51855;DHT22;37895;53.240;6.572;2023-06-22T09:44:03;23.50;99.60
51855;DHT22;37895;53.240;6.572;2023-06-22T09:46:28;23.60;99.60
51855;DHT22;37895;53.240;6.572;2023-06-22T09:48:54;23.60;99.10
51855;DHT22;37895;53.240;6.572;2023-06-22T09:51:19;23.50;99.80
51855;DHT22;37895;53.240;6.572;2023-06-22T09:53:47;23.60;99.60
51855;DHT22;37895;53.240;6.572;2023-06-22T09:56:13;23.60;99.90
51855;DHT22;37895;53.240;6.572;2023-06-22T09:58:44;23.70;99.40
51855;DHT22;37895;53.240;6.572;2023-06-22T10:01:11;23.70;99.40
51855;DHT22;37895;53.240;6.572;2023-06-22T10:03:37;23.90;99.40
51855;DHT22;37895;53.240;6.572;2023-06-22T10:06:03;24.00;99.40
51855;DHT22;37895;53.240;6.572;2023-06-22T10:08:29;24.00;99.00
51855;DHT22;37895;53.240;6.572;2023-06-22T10:10:54;23.90;98.60
51855;DHT22;37895;53.240;6.572;2023-06-22T10:13:20;24.00;98.60
51855;DHT22;37895;53.240;6.572;2023-06-22T10:15:46;24.00;98.80
51855;DHT22;37895;53.240;6.572;2023-06-22T10:18:20;24.10;98.80
51855;DHT22;37895;53.240;6.572;2023-06-22T10:20:48;24.20;99.00
51855;DHT22;37895;53.240;6.572;2023-06-22T10:23:15;24.30;99.30
51855;DHT22;37895;53.240;6.572;2023-06-22T10:25:41;24.40;99.00
51855;DHT22;37895;53.240;6.572;2023-06-22T10:28:06;24.40;99.10
51855;DHT22;37895;53.240;6.572;2023-06-22T10:30:32;24.40;98.00
51855;DHT22;37895;53.240;6.572;2023-06-22T10:32:58;24.30;98.40
51855;DHT22;37895;53.240;6.572;2023-06-22T10:35:23;24.20;98.80
51855;DHT22;37895;53.240;6.572;2023-06-22T10:37:49;24.20;98.40
51855;DHT22;37895;53.240;6.572;2023-06-22T10:40:15;24.10;97.90
51855;DHT22;37895;53.240;6.572;2023-06-22T10:42:41;24.10;97.70
51855;DHT22;37895;53.240;6.572;2023-06-22T10:45:07;24.10;98.40
51855;DHT22;37895;53.240;6.572;2023-06-22T10:47:33;24.20;98.60
51855;DHT22;37895;53.240;6.572;2023-06-22T10:49:58;24.40;99.10
51855;DHT22;37895;53.240;6.572;2023-06-22T10:52:24;24.60;99.00
51855;DHT22;37895;53.240;6.572;2023-06-22T10:54:49;24.90;98.50
51855;DHT22;37895;53.240;6.572;2023-06-22T10:57:15;25.00;98.10
51855;DHT22;37895;53.240;6.572;2023-06-22T10:59:40;25.20;97.70
51855;DHT22;37895;53.240;6.572;2023-06-22T11:02:06;25.30;97.40
51855;DHT22;37895;53.240;6.572;2023-06-22T11:04:31;25.40;98.80
51855;DHT22;37895;53.240;6.572;2023-06-22T11:06:57;25.20;97.70
51855;DHT22;37895;53.240;6.572;2023-06-22T11:09:23;25.20;96.50
51855;DHT22;37895;53.240;6.572;2023-06-22T11:11:49;25.20;97.70
51855;DHT22;37895;53.240;6.572;2023-06-22T11:14:15;25.40;98.10
51855;DHT22;37895;53.240;6.572;2023-06-22T11:16:41;25.50;97.50
51855;DHT22;37895;53.240;6.572;2023-06-22T11:19:06;25.70;97.00
51855;DHT22;37895;53.240;6.572;2023-06-22T11:21:32;25.70;96.30
51855;DHT22;37895;53.240;6.572;2023-06-22T11:23:57;25.80;97.30
51855;DHT22;37895;53.240;6.572;2023-06-22T11:26:24;25.90;97.20
51855;DHT22;37895;53.240;6.572;2023-06-22T11:28:49;26.00;96.60
51855;DHT22;37895;53.240;6.572;2023-06-22T11:31:15;26.10;95.70
51855;DHT22;37895;53.240;6.572;2023-06-22T11:33:40;26.10;96.20
51855;DHT22;37895;53.240;6.572;2023-06-22T11:36:06;26.20;96.70
51855;DHT22;37895;53.240;6.572;2023-06-22T11:38:31;26.00;95.80
51855;DHT22;37895;53.240;6.572;2023-06-22T11:40:57;25.80;96.10
51855;DHT22;37895;53.240;6.572;2023-06-22T11:43:23;25.80;96.50
51855;DHT22;37895;53.240;6.572;2023-06-22T11:45:48;25.70;96.90
51855;DHT22;37895;53.240;6.572;2023-06-22T11:48:14;25.80;95.60
51855;DHT22;37895;53.240;6.572;2023-06-22T11:50:39;26.00;96.90
51855;DHT22;37895;53.240;6.572;2023-06-22T11:53:05;26.20;96.40
51855;DHT22;37895;53.240;6.572;2023-06-22T11:55:31;26.20;96.40
51855;DHT22;37895;53.240;6.572;2023-06-22T11:57:57;26.10;94.70
51855;DHT22;37895;53.240;6.572;2023-06-22T12:00:24;26.10;95.80
51855;DHT22;37895;53.240;6.572;2023-06-22T12:02:50;26.10;96.00
51855;DHT22;37895;53.240;6.572;2023-06-22T12:05:19;26.10;96.20
51855;DHT22;37895;53.240;6.572;2023-06-22T12:07:45;26.10;96.60
51855;DHT22;37895;53.240;6.572;2023-06-22T12:10:11;26.00;96.10
51855;DHT22;37895;53.240;6.572;2023-06-22T12:12:37;25.90;95.60
51855;DHT22;37895;53.240;6.572;2023-06-22T12:15:02;25.90;95.90
51855;DHT22;37895;53.240;6.572;2023-06-22T12:17:29;25.80;96.00
51855;DHT22;37895;53.240;6.572;2023-06-22T12:19:55;25.90;96.60
51855;DHT22;37895;53.240;6.572;2023-06-22T12:22:20;25.90;96.50
51855;DHT22;37895;53.240;6.572;2023-06-22T12:24:46;25.90;96.20
51855;DHT22;37895;53.240;6.572;2023-06-22T12:27:12;25.90;96.50
51855;DHT22;37895;53.240;6.572;2023-06-22T12:29:37;26.00;96.50
51855;DHT22;37895;53.240;6.572;2023-06-22T12:32:03;26.00;96.60
51855;DHT22;37895;53.240;6.572;2023-06-22T12:34:28;25.90;95.90
51855;DHT22;37895;53.240;6.572;2023-06-22T12:36:54;26.00;96.50
51855;DHT22;37895;53.240;6.572;2023-06-22T12:39:20;26.00;96.50
51855;DHT22;37895;53.240;6.572;2023-06-22T12:41:45;26.00;96.40
51855;DHT22;37895;53.240;6.572;2023-06-22T12:44:11;26.00;96.00
51855;DHT22;37895;53.240;6.572;2023-06-22T12:46:36;25.90;96.10
51855;DHT22;37895;53.240;6.572;2023-06-22T12:49:03;25.90;95.80
51855;DHT22;37895;53.240;6.572;2023-06-22T12:51:29;25.80;96.00
51855;DHT22;37895;53.240;6.572;2023-06-22T12:53:55;25.90;96.60
51855;DHT22;37895;53.240;6.572;2023-06-22T12:56:20;25.90;95.90
51855;DHT22;37895;53.240;6.572;2023-06-22T12:58:46;25.70;95.60
51855;DHT22;37895;53.240;6.572;2023-06-22T13:01:11;25.70;95.50
51855;DHT22;37895;53.240;6.572;2023-06-22T13:03:37;25.60;96.10
51855;DHT22;37895;53.240;6.572;2023-06-22T13:06:03;25.70;95.80
51855;DHT22;37895;53.240;6.572;2023-06-22T13:08:29;25.70;95.90
51855;DHT22;37895;53.240;6.572;2023-06-22T13:10:54;25.60;95.30
51855;DHT22;37895;53.240;6.572;2023-06-22T13:13:23;25.50;95.10
51855;DHT22;37895;53.240;6.572;2023-06-22T13:15:50;25.40;94.40
51855;DHT22;37895;53.240;6.572;2023-06-22T13:18:16;25.30;95.60
51855;DHT22;37895;53.240;6.572;2023-06-22T13:20:41;25.30;95.60
51855;DHT22;37895;53.240;6.572;2023-06-22T13:23:07;25.20;96.00
51855;DHT22;37895;53.240;6.572;2023-06-22T13:25:32;25.20;95.50
51855;DHT22;37895;53.240;6.572;2023-06-22T13:27:58;25.20;95.70
51855;DHT22;37895;53.240;6.572;2023-06-22T13:30:23;25.20;95.60
51855;DHT22;37895;53.240;6.572;2023-06-22T13:32:49;25.20;95.50
51855;DHT22;37895;53.240;6.572;2023-06-22T13:35:14;25.20;94.70
51855;DHT22;37895;53.240;6.572;2023-06-22T13:37:40;25.20;94.90
51855;DHT22;37895;53.240;6.572;2023-06-22T13:40:06;25.20;94.80
51855;DHT22;37895;53.240;6.572;2023-06-22T13:42:32;25.20;95.30
51855;DHT22;37895;53.240;6.572;2023-06-22T13:44:58;25.30;94.40
51855;DHT22;37895;53.240;6.572;2023-06-22T13:47:23;25.20;95.20
51855;DHT22;37895;53.240;6.572;2023-06-22T13:49:49;25.20;94.40
51855;DHT22;37895;53.240;6.572;2023-06-22T13:52:14;24.90;94.50
51855;DHT22;37895;53.240;6.572;2023-06-22T13:54:40;24.80;94.60
51855;DHT22;37895;53.240;6.572;2023-06-22T13:57:05;24.80;94.60
51855;DHT22;37895;53.240;6.572;2023-06-22T13:59:31;24.70;94.90
51855;DHT22;37895;53.240;6.572;2023-06-22T14:01:56;24.80;95.40
51855;DHT22;37895;53.240;6.572;2023-06-22T14:04:25;24.60;95.10
51855;DHT22;37895;53.240;6.572;2023-06-22T14:06:51;24.60;95.80
51855;DHT22;37895;53.240;6.572;2023-06-22T14:09:16;24.70;95.50
51855;DHT22;37895;53.240;6.572;2023-06-22T14:11:42;24.60;96.10
51855;DHT22;37895;53.240;6.572;2023-06-22T14:14:07;24.60;95.70
51855;DHT22;37895;53.240;6.572;2023-06-22T14:16:33;24.40;95.50
51855;DHT22;37895;53.240;6.572;2023-06-22T14:18:58;24.20;95.10
51855;DHT22;37895;53.240;6.572;2023-06-22T14:21:25;24.20;95.70
51855;DHT22;37895;53.240;6.572;2023-06-22T14:23:50;24.20;95.90
51855;DHT22;37895;53.240;6.572;2023-06-22T14:26:16;24.10;95.60
51855;DHT22;37895;53.240;6.572;2023-06-22T14:28:45;24.20;95.80
51855;DHT22;37895;53.240;6.572;2023-06-22T14:31:13;24.10;95.70
51855;DHT22;37895;53.240;6.572;2023-06-22T14:33:39;24.00;96.30
51855;DHT22;37895;53.240;6.572;2023-06-22T14:36:05;24.00;96.20
51855;DHT22;37895;53.240;6.572;2023-06-22T14:38:30;24.00;95.80
51855;DHT22;37895;53.240;6.572;2023-06-22T14:40:56;24.10;95.60
51855;DHT22;37895;53.240;6.572;2023-06-22T14:43:21;24.00;95.60
51855;DHT22;37895;53.240;6.572;2023-06-22T14:45:47;23.90;95.00
51855;DHT22;37895;53.240;6.572;2023-06-22T14:48:12;23.90;95.30
51855;DHT22;37895;53.240;6.572;2023-06-22T14:50:37;23.80;95.40
51855;DHT22;37895;53.240;6.572;2023-06-22T14:53:03;23.80;95.80
51855;DHT22;37895;53.240;6.572;2023-06-22T14:55:28;23.70;95.20
51855;DHT22;37895;53.240;6.572;2023-06-22T14:57:54;23.60;95.20
51855;DHT22;37895;53.240;6.572;2023-06-22T15:00:20;23.60;95.10
51855;DHT22;37895;53.240;6.572;2023-06-22T15:02:45;23.60;95.30
51855;DHT22;37895;53.240;6.572;2023-06-22T15:05:11;23.70;95.40
51855;DHT22;37895;53.240;6.572;2023-06-22T15:07:36;23.70;94.30
51855;DHT22;37895;53.240;6.572;2023-06-22T15:10:02;23.80;95.00
51855;DHT22;37895;53.240;6.572;2023-06-22T15:12:27;23.70;94.20
51855;DHT22;37895;53.240;6.572;2023-06-22T15:14:53;23.60;94.40
51855;DHT22;37895;53.240;6.572;2023-06-22T15:17:18;23.70;94.60
51855;DHT22;37895;53.240;6.572;2023-06-22T15:19:44;23.70;94.60
51855;DHT22;37895;53.240;6.572;2023-06-22T15:22:09;23.80;95.10
51855;DHT22;37895;53.240;6.572;2023-06-22T15:24:35;23.80;94.80
51855;DHT22;37895;53.240;6.572;2023-06-22T15:27:00;23.90;95.10
51855;DHT22;37895;53.240;6.572;2023-06-22T15:29:26;23.90;94.70
51855;DHT22;37895;53.240;6.572;2023-06-22T15:31:52;23.90;94.10